createdAt,value
2023-04-28T00:00:48.913Z,100510.84
2023-04-28T00:05:55.536Z,100513.22
2023-04-28T00:11:00.822Z,100510.59
2023-04-28T00:16:06.252Z,100512.72
2023-04-28T00:21:11.357Z,100511.06
2023-04-28T00:26:16.815Z,100516.72
2023-04-28T00:31:22.004Z,100510.69
2023-04-28T00:36:27.286Z,100509.16
2023-04-28T00:41:31.866Z,100499.44
2023-04-28T00:46:38.642Z,100491.06
2023-04-28T00:51:44.841Z,100495.88
2023-04-28T00:56:50.469Z,100503.53
2023-04-28T01:01:55.453Z,100491.31
2023-04-28T01:07:03.246Z,100492.63
2023-04-28T01:12:08.589Z,100485.06
2023-04-28T01:17:21.912Z,100480.78
2023-04-28T01:22:27.477Z,100472.41
2023-04-28T01:27:32.788Z,100477.81
2023-04-28T01:32:39.102Z,100465.16
2023-04-28T01:37:43.904Z,100461.91
2023-04-28T01:42:49.064Z,100467.91
2023-04-28T01:47:53.975Z,100481.69
2023-04-28T01:52:59.121Z,100440.38
2023-04-28T01:58:04.175Z,100435.28
2023-04-28T02:03:10.828Z,100441.44
2023-04-28T02:08:15.994Z,100460.97
2023-04-28T02:13:21.032Z,100441.00
2023-04-28T02:18:25.857Z,100434.44
2023-04-28T02:23:30.862Z,100429.69
2023-04-28T02:28:36.123Z,100428.63
2023-04-28T02:33:46.313Z,100444.19
2023-04-28T02:38:52.576Z,100405.94
2023-04-28T02:43:59.148Z,100406.25
2023-04-28T02:49:04.306Z,100388.22
2023-04-28T02:54:09.554Z,100398.19
2023-04-28T02:59:14.285Z,100382.84
2023-04-28T03:04:21.989Z,100369.81
2023-04-28T03:09:27.719Z,100394.31
2023-04-28T03:14:32.701Z,100376.97
2023-04-28T03:19:41.533Z,100392.97
2023-04-28T03:24:47.545Z,100355.94
2023-04-28T03:29:53.868Z,100373.72
2023-04-28T03:34:59.145Z,100334.63
2023-04-28T03:40:05.992Z,100319.00
2023-04-28T03:45:27.614Z,100319.28
2023-04-28T03:50:32.586Z,100318.38
2023-04-28T03:55:39.093Z,100317.41
2023-04-28T04:00:44.225Z,100315.59
2023-04-28T04:05:49.701Z,100302.53
2023-04-28T04:10:56.075Z,100285.78
2023-04-28T04:16:00.948Z,100282.91
2023-04-28T04:21:07.433Z,100255.47
2023-04-28T04:26:12.572Z,100246.50
2023-04-28T04:31:18.721Z,100232.25
2023-04-28T04:36:24.722Z,100220.66
2023-04-28T04:41:30.341Z,100209.56
2023-04-28T04:46:51.916Z,100225.78
2023-04-28T04:51:58.665Z,100175.13
2023-04-28T04:57:03.910Z,100196.25
2023-04-28T05:02:34.754Z,100188.09
2023-04-28T05:07:42.209Z,100198.66
2023-04-28T05:12:49.123Z,100173.97
2023-04-28T05:17:56.232Z,100169.63
2023-04-28T05:23:01.869Z,100154.75
2023-04-28T05:28:08.883Z,100167.56
2023-04-28T05:33:15.083Z,100143.00
2023-04-28T05:38:22.817Z,100133.06
2023-04-28T05:43:29.340Z,100115.94
2023-04-28T05:48:34.834Z,100096.38
2023-04-28T05:53:40.628Z,100091.97
2023-04-28T05:58:49.243Z,100089.84
2023-04-28T06:03:55.255Z,100080.88
2023-04-28T06:09:00.647Z,100070.03
2023-04-28T06:14:05.771Z,100057.22
2023-04-28T06:19:11.015Z,100047.78
2023-04-28T06:24:17.288Z,100057.88
2023-04-28T06:29:25.360Z,100044.91
2023-04-28T06:34:30.235Z,100039.84
2023-04-28T06:39:35.232Z,100051.75
2023-04-28T06:44:40.046Z,100025.44
2023-04-28T06:49:46.949Z,100006.59
2023-04-28T06:54:54.590Z,99974.09
2023-04-28T06:59:59.575Z,99941.72
2023-04-28T07:05:05.763Z,99934.06
2023-04-28T07:10:11.967Z,99966.56
2023-04-28T07:15:17.207Z,99965.56
2023-04-28T07:20:22.021Z,99987.72
2023-04-28T07:25:27.235Z,99958.38
2023-04-28T07:30:32.380Z,99978.69
2023-04-28T07:35:37.486Z,100075.50
2023-04-28T07:40:44.913Z,100065.03
2023-04-28T07:45:51.416Z,100071.44
2023-04-28T07:51:00.702Z,100108.63
2023-04-28T07:56:06.221Z,100058.44
2023-04-28T08:01:11.393Z,100068.41
2023-04-28T08:06:16.896Z,100079.72
2023-04-28T08:11:23.627Z,100115.63
2023-04-28T08:16:28.599Z,100119.00
2023-04-28T08:21:34.054Z,100162.56
2023-04-28T08:26:40.487Z,100211.19
2023-04-28T08:31:47.250Z,100212.34
2023-04-28T08:36:53.608Z,100212.22
2023-04-28T08:41:59.385Z,100237.22
2023-04-28T08:47:12.127Z,100227.88
2023-04-28T08:52:20.669Z,100239.31
2023-04-28T08:57:29.858Z,100262.06
2023-04-28T09:02:35.707Z,100317.50
2023-04-28T09:07:41.810Z,100315.38
2023-04-28T09:12:52.892Z,100322.72
2023-04-28T09:18:00.520Z,100341.59
2023-04-28T09:23:30.284Z,100347.16
2023-04-28T09:28:37.914Z,100373.22
2023-04-28T09:34:02.549Z,100355.50
2023-04-28T09:39:08.467Z,100377.34
2023-04-28T09:44:19.470Z,100387.13
2023-04-28T09:49:24.843Z,100419.41
2023-04-28T09:54:33.669Z,100432.13
2023-04-28T09:59:41.332Z,100446.13
2023-04-28T10:04:53.010Z,100473.22
2023-04-28T10:09:59.834Z,100469.69
2023-04-28T10:15:11.324Z,100484.00
2023-04-28T10:20:22.649Z,100496.66
2023-04-28T10:25:36.942Z,100452.47
2023-04-28T10:31:20.821Z,100429.34
2023-04-28T10:37:00.074Z,100414.38
2023-04-28T10:42:06.257Z,100390.97
2023-04-28T10:47:15.520Z,100382.69
2023-04-28T10:52:45.739Z,100371.19
2023-04-28T10:58:22.248Z,100360.16
2023-04-28T11:03:52.812Z,100357.53
2023-04-28T11:09:04.599Z,100332.75
2023-04-28T11:14:22.622Z,100293.75
2023-04-28T11:19:39.448Z,100289.47
2023-04-28T11:25:08.737Z,100288.47
2023-04-28T11:30:33.379Z,100288.97
2023-04-28T11:35:45.656Z,100299.72
2023-04-28T11:41:05.402Z,100279.03
2023-04-28T11:46:16.276Z,100285.50
2023-04-28T11:51:41.341Z,100308.09
2023-04-28T11:56:53.816Z,100325.91
2023-04-28T12:02:04.384Z,100347.69
2023-04-28T12:07:15.961Z,100382.31
2023-04-28T12:17:51.341Z,100395.19
2023-04-28T12:22:59.326Z,100428.72
2023-04-28T12:28:11.744Z,100451.88
2023-04-28T12:33:27.482Z,100472.38
2023-04-28T12:38:34.271Z,100514.84
2023-04-28T12:43:45.998Z,100522.97
2023-04-28T12:48:59.483Z,100536.56
2023-04-28T12:54:06.337Z,100536.25
2023-04-28T12:59:16.761Z,100563.28
2023-04-28T13:04:28.618Z,100520.38
2023-04-28T13:09:36.007Z,100518.50
2023-04-28T13:14:44.966Z,100472.25
2023-04-28T13:19:53.296Z,100503.56
2023-04-28T13:25:06.876Z,100529.81
2023-04-28T13:30:15.428Z,100554.34
2023-04-28T13:35:25.150Z,100559.31
2023-04-28T13:40:33.595Z,100600.56
2023-04-28T13:45:39.779Z,100585.31
2023-04-28T13:50:59.833Z,100592.97
2023-04-28T13:56:10.496Z,100616.94
2023-04-28T14:01:22.168Z,100612.91
2023-04-28T14:06:34.669Z,100603.16
2023-04-28T14:11:42.407Z,100636.13
2023-04-28T14:16:50.186Z,100630.50
2023-04-28T14:22:09.418Z,100638.41
2023-04-28T14:27:24.878Z,100629.72
2023-04-28T14:32:31.995Z,100653.09
2023-04-28T14:37:39.080Z,100625.25
2023-04-28T14:42:49.023Z,100632.28
2023-04-28T14:48:02.492Z,100635.06
2023-04-28T14:53:08.744Z,100653.75
2023-04-28T14:58:19.068Z,100652.78
2023-04-28T15:03:33.849Z,100641.06
2023-04-28T15:08:43.718Z,100647.84
2023-04-28T15:14:05.087Z,100629.84
2023-04-28T15:19:13.891Z,100630.91
2023-04-28T15:24:26.464Z,100635.88
2023-04-28T15:29:34.485Z,100618.78
2023-04-28T15:34:47.561Z,100613.63
2023-04-28T15:39:54.236Z,100609.59
2023-04-28T15:45:05.361Z,100600.53
2023-04-28T15:50:12.317Z,100625.63
2023-04-28T15:55:22.368Z,100590.75
2023-04-28T16:00:33.341Z,100584.59
2023-04-28T16:05:48.427Z,100573.59
2023-04-28T16:10:59.974Z,100569.00
2023-04-28T16:16:12.000Z,100554.25
2023-04-28T16:21:21.619Z,100549.94
2023-04-28T16:26:32.612Z,100550.88
2023-04-28T16:31:40.111Z,100544.44
2023-04-28T16:36:55.089Z,100546.13
2023-04-28T16:42:02.320Z,100540.69
2023-04-28T16:47:09.171Z,100542.88
2023-04-28T16:52:17.811Z,100530.38
2023-04-28T16:57:24.452Z,100525.63
2023-04-28T17:02:30.929Z,100524.34
2023-04-28T17:07:40.885Z,100524.03
2023-04-28T17:12:49.485Z,100522.06
2023-04-28T17:17:55.853Z,100517.47
2023-04-28T17:23:02.484Z,100512.84
2023-04-28T17:28:09.145Z,100502.28
2023-04-28T17:33:18.447Z,100501.78
2023-04-28T17:38:27.702Z,100488.34
2023-04-28T17:43:34.081Z,100479.91
2023-04-28T17:48:39.073Z,100481.06
2023-04-28T17:53:43.973Z,100466.53
2023-04-28T17:58:53.002Z,100462.84
2023-04-28T18:03:59.675Z,100454.06
2023-04-28T18:09:05.024Z,100449.94
2023-04-28T18:14:10.822Z,100439.53
2023-04-28T18:19:16.800Z,100471.34
2023-04-28T18:24:22.790Z,100429.81
2023-04-28T18:29:28.075Z,100435.38
2023-04-28T18:34:33.647Z,100439.00
2023-04-28T18:39:38.821Z,100435.00
2023-04-28T18:44:43.979Z,100429.69
2023-04-28T18:49:48.495Z,100420.25
2023-04-28T18:54:54.168Z,100418.53
2023-04-28T19:00:00.867Z,100435.91
2023-04-28T19:05:07.131Z,100398.63
2023-04-28T19:10:14.242Z,100387.84
2023-04-28T19:15:20.089Z,100388.47
2023-04-28T19:20:25.453Z,100381.00
2023-04-28T19:25:36.384Z,100374.53
2023-04-28T19:30:41.358Z,100379.56
2023-04-28T19:35:46.178Z,100374.19
2023-04-28T19:40:52.259Z,100362.78
2023-04-28T19:45:58.320Z,100349.13
2023-04-28T19:51:03.685Z,100361.91
2023-04-28T19:56:11.415Z,100363.31
2023-04-28T20:01:16.894Z,100364.03
2023-04-28T20:06:21.985Z,100361.59
2023-04-28T20:11:27.247Z,100364.13
2023-04-28T20:16:32.715Z,100378.00
2023-04-28T20:21:38.214Z,100371.53
2023-04-28T20:26:44.153Z,100364.22
2023-04-28T20:31:49.579Z,100352.84
2023-04-28T20:36:55.531Z,100369.91
2023-04-28T20:42:01.938Z,100366.44
2023-04-28T20:47:07.117Z,100354.97
2023-04-28T20:52:13.200Z,100355.44
2023-04-28T20:57:18.101Z,100356.66
2023-04-28T21:02:23.573Z,100358.06
2023-04-28T21:07:28.779Z,100361.59
2023-04-28T21:12:34.110Z,100371.44
2023-04-28T21:17:38.937Z,100371.44
2023-04-28T21:22:43.831Z,100380.72
2023-04-28T21:27:49.160Z,100375.66
2023-04-28T21:32:54.907Z,100367.47
2023-04-28T21:37:59.264Z,100356.56
2023-04-28T21:43:04.318Z,100349.38
2023-04-28T21:48:09.781Z,100350.88
2023-04-28T21:53:15.327Z,100350.75
2023-04-28T21:58:20.619Z,100356.81
2023-04-28T22:03:26.133Z,100356.41
2023-04-28T22:08:33.073Z,100364.59
2023-04-28T22:13:38.236Z,100358.59
2023-04-28T22:18:43.584Z,100353.88
2023-04-28T22:23:48.440Z,100356.75
2023-04-28T22:29:05.780Z,100365.56
2023-04-28T22:34:11.725Z,100360.25
2023-04-28T22:39:16.761Z,100365.41
2023-04-28T22:44:22.259Z,100364.31
2023-04-28T22:49:29.816Z,100370.75
2023-04-28T22:54:35.004Z,100363.94
2023-04-28T22:59:41.152Z,100376.72
2023-04-28T23:04:46.032Z,100368.06
2023-04-28T23:09:51.277Z,100380.94
2023-04-28T23:15:00.796Z,100371.22
2023-04-28T23:20:06.367Z,100367.69
2023-04-28T23:25:11.973Z,100358.81
2023-04-28T23:30:17.454Z,100361.16
2023-04-28T23:35:25.447Z,100357.56
2023-04-28T23:40:31.529Z,100361.19
2023-04-28T23:45:37.291Z,100352.78
2023-04-28T23:50:42.519Z,100349.59
2023-04-28T23:55:52.335Z,100334.31
